MCF1TR LHBP-LHSM
Flight info
| Callsign | MCF1TR |
|---|---|
| Flight time | 0h 26m |
| Altitude | 14000 |
| Route | DUZLA DCT SVR |
| Aircraft | B738/M-SDE2E3FGHIRWXY/LB1 |
Departure
| Time | 2026-04-18 11:04 |
|---|---|
| Airport | Budapest Liszt Ferenc International Airport (LHBP) |
Arrival
| Time | 2026-04-18 11:30 |
|---|---|
| Airport | Hévíz–Balaton Airport (LHSM) |
| Time | Latitude | Longitude | Altitude | Speed | Heading |
|---|---|---|---|---|---|
| 2026-04-18 10:15 | 47.43511 | 19.26478 | 456 ft | 0 kts | 222° |
| 2026-04-18 10:53 | 47.43512 | 19.26480 | 484 ft | 2 kts | 224° |
| 2026-04-18 10:53 | 47.43530 | 19.26503 | 456 ft | 4 kts | 228° |
| 2026-04-18 10:54 | 47.43540 | 19.26535 | 457 ft | 4 kts | 279° |
| 2026-04-18 10:54 | 47.43530 | 19.26569 | 455 ft | 4 kts | 309° |
| 2026-04-18 10:54 | 47.43511 | 19.26599 | 454 ft | 4 kts | 313° |
| 2026-04-18 10:54 | 47.43508 | 19.26605 | 455 ft | 0 kts | 312° |
| 2026-04-18 10:58 | 47.43508 | 19.26604 | 455 ft | 1 kts | 312° |
| 2026-04-18 10:58 | 47.43525 | 19.26576 | 455 ft | 6 kts | 312° |
| 2026-04-18 10:58 | 47.43577 | 19.26493 | 457 ft | 15 kts | 312° |
| 2026-04-18 10:59 | 47.43647 | 19.26379 | 456 ft | 15 kts | 312° |
| 2026-04-18 10:59 | 47.43678 | 19.26242 | 456 ft | 14 kts | 268° |
| 2026-04-18 10:59 | 47.43676 | 19.26092 | 456 ft | 14 kts | 280° |
| 2026-04-18 10:59 | 47.43732 | 19.25974 | 456 ft | 14 kts | 299° |
| 2026-04-18 11:00 | 47.43695 | 19.25858 | 456 ft | 13 kts | 221° |
| 2026-04-18 11:00 | 47.43627 | 19.25768 | 456 ft | 13 kts | 222° |
| 2026-04-18 11:00 | 47.43559 | 19.25675 | 456 ft | 13 kts | 223° |
| 2026-04-18 11:00 | 47.43493 | 19.25587 | 456 ft | 13 kts | 221° |
| 2026-04-18 11:01 | 47.43427 | 19.25502 | 456 ft | 12 kts | 221° |
| 2026-04-18 11:01 | 47.43365 | 19.25416 | 456 ft | 12 kts | 223° |
| 2026-04-18 11:01 | 47.43304 | 19.25334 | 456 ft | 12 kts | 221° |
| 2026-04-18 11:02 | 47.43186 | 19.25175 | 456 ft | 12 kts | 222° |
| 2026-04-18 11:02 | 47.43118 | 19.25084 | 456 ft | 14 kts | 223° |
| 2026-04-18 11:02 | 47.43088 | 19.24959 | 455 ft | 16 kts | 311° |
| 2026-04-18 11:02 | 47.43094 | 19.24951 | 455 ft | 0 kts | 312° |
| 2026-04-18 11:03 | 47.43105 | 19.24932 | 456 ft | 8 kts | 312° |
| 2026-04-18 11:03 | 47.43205 | 19.24770 | 455 ft | 48 kts | 313° |
| 2026-04-18 11:03 | 47.43595 | 19.24142 | 452 ft | 116 kts | 312° |
| 2026-04-18 11:04 | 47.44263 | 19.23067 | 526 ft | 162 kts | 314° |
| 2026-04-18 11:04 | 47.45058 | 19.21851 | 1140 ft | 168 kts | 313° |
| 2026-04-18 11:04 | 47.45882 | 19.20536 | 1788 ft | 181 kts | 313° |
| 2026-04-18 11:04 | 47.46740 | 19.19120 | 2450 ft | 188 kts | 313° |
| 2026-04-18 11:05 | 47.47622 | 19.17669 | 3208 ft | 189 kts | 313° |
| 2026-04-18 11:05 | 47.48454 | 19.16042 | 3585 ft | 212 kts | 299° |
| 2026-04-18 11:05 | 47.48927 | 19.13864 | 3809 ft | 234 kts | 277° |
| 2026-04-18 11:05 | 47.48804 | 19.11425 | 4304 ft | 244 kts | 254° |
| 2026-04-18 11:06 | 47.47986 | 19.09165 | 4739 ft | 261 kts | 227° |
| 2026-04-18 11:06 | 47.46499 | 19.07587 | 5428 ft | 269 kts | 206° |
| 2026-04-18 11:06 | 47.44753 | 19.06455 | 6111 ft | 278 kts | 203° |
| 2026-04-18 11:06 | 47.42948 | 19.05308 | 6802 ft | 286 kts | 204° |
| 2026-04-18 11:07 | 47.41116 | 19.04102 | 7522 ft | 290 kts | 205° |
| 2026-04-18 11:07 | 47.39279 | 19.02841 | 8262 ft | 293 kts | 205° |
| 2026-04-18 11:07 | 47.37430 | 19.01515 | 8979 ft | 297 kts | 210° |
| 2026-04-18 11:07 | 47.35855 | 18.99534 | 9682 ft | 300 kts | 229° |
| 2026-04-18 11:08 | 47.34482 | 18.97182 | 10319 ft | 307 kts | 231° |
| 2026-04-18 11:08 | 47.33062 | 18.94685 | 10524 ft | 330 kts | 231° |
| 2026-04-18 11:08 | 47.31535 | 18.92015 | 10696 ft | 351 kts | 231° |
| 2026-04-18 11:08 | 47.29907 | 18.89205 | 10861 ft | 371 kts | 230° |
| 2026-04-18 11:09 | 47.28169 | 18.86247 | 11013 ft | 390 kts | 230° |
| 2026-04-18 11:09 | 47.26357 | 18.83187 | 11319 ft | 402 kts | 231° |
| 2026-04-18 11:09 | 47.24779 | 18.79767 | 11819 ft | 405 kts | 244° |
| 2026-04-18 11:09 | 47.23521 | 18.76061 | 12491 ft | 406 kts | 245° |
| 2026-04-18 11:10 | 47.22245 | 18.72328 | 13140 ft | 409 kts | 245° |
| 2026-04-18 11:10 | 47.20949 | 18.68587 | 13772 ft | 412 kts | 244° |
| 2026-04-18 11:10 | 47.19635 | 18.64832 | 14152 ft | 416 kts | 244° |
| 2026-04-18 11:10 | 47.18292 | 18.61020 | 14150 ft | 420 kts | 244° |
| 2026-04-18 11:11 | 47.16945 | 18.57218 | 14158 ft | 418 kts | 244° |
| 2026-04-18 11:11 | 47.15598 | 18.53428 | 14167 ft | 419 kts | 244° |
| 2026-04-18 11:11 | 47.14248 | 18.49639 | 14163 ft | 419 kts | 244° |
| 2026-04-18 11:11 | 47.12895 | 18.45845 | 14158 ft | 419 kts | 244° |
| 2026-04-18 11:12 | 47.11540 | 18.42049 | 14162 ft | 419 kts | 244° |
| 2026-04-18 11:12 | 47.10186 | 18.38263 | 14153 ft | 419 kts | 244° |
| 2026-04-18 11:12 | 47.08832 | 18.34479 | 14162 ft | 419 kts | 244° |
| 2026-04-18 11:12 | 47.07476 | 18.30695 | 14164 ft | 419 kts | 244° |
| 2026-04-18 11:13 | 47.06118 | 18.26911 | 14166 ft | 419 kts | 244° |
| 2026-04-18 11:13 | 47.04757 | 18.23124 | 14165 ft | 420 kts | 244° |
| 2026-04-18 11:13 | 47.03393 | 18.19334 | 14168 ft | 420 kts | 244° |
| 2026-04-18 11:13 | 47.02029 | 18.15550 | 14164 ft | 420 kts | 244° |
| 2026-04-18 11:14 | 47.00662 | 18.11765 | 14162 ft | 420 kts | 244° |
| 2026-04-18 11:14 | 46.99296 | 18.07985 | 14157 ft | 420 kts | 243° |
| 2026-04-18 11:14 | 46.97939 | 18.04238 | 13774 ft | 415 kts | 243° |
| 2026-04-18 11:14 | 46.96596 | 18.00534 | 13235 ft | 410 kts | 243° |
| 2026-04-18 11:15 | 46.95266 | 17.96872 | 12668 ft | 404 kts | 243° |
| 2026-04-18 11:15 | 46.93955 | 17.93268 | 12082 ft | 400 kts | 243° |
| 2026-04-18 11:15 | 46.92653 | 17.89691 | 11530 ft | 396 kts | 243° |
| 2026-04-18 11:15 | 46.91385 | 17.86211 | 11392 ft | 381 kts | 243° |
| 2026-04-18 11:16 | 46.90154 | 17.82841 | 11210 ft | 369 kts | 244° |
| 2026-04-18 11:16 | 46.88966 | 17.79594 | 11051 ft | 357 kts | 244° |
| 2026-04-18 11:16 | 46.87813 | 17.76444 | 10909 ft | 346 kts | 244° |
| 2026-04-18 11:16 | 46.86698 | 17.73400 | 10767 ft | 336 kts | 244° |
| 2026-04-18 11:17 | 46.85960 | 17.71388 | 10676 ft | 329 kts | 244° |
| 2026-04-18 11:17 | 46.84887 | 17.68460 | 10415 ft | 325 kts | 244° |
| 2026-04-18 11:17 | 46.83832 | 17.65587 | 10267 ft | 317 kts | 244° |
| 2026-04-18 11:17 | 46.82804 | 17.62793 | 10120 ft | 309 kts | 244° |
| 2026-04-18 11:18 | 46.81795 | 17.60050 | 9971 ft | 303 kts | 244° |
| 2026-04-18 11:18 | 46.80814 | 17.57387 | 9913 ft | 291 kts | 244° |
| 2026-04-18 11:18 | 46.79855 | 17.54787 | 9421 ft | 291 kts | 244° |
| 2026-04-18 11:18 | 46.78901 | 17.52199 | 9106 ft | 290 kts | 244° |
| 2026-04-18 11:19 | 46.77943 | 17.49606 | 8814 ft | 289 kts | 244° |
| 2026-04-18 11:19 | 46.76991 | 17.47029 | 8527 ft | 288 kts | 244° |
| 2026-04-18 11:19 | 46.76044 | 17.44471 | 8246 ft | 287 kts | 244° |
| 2026-04-18 11:19 | 46.75096 | 17.41913 | 7965 ft | 285 kts | 244° |
| 2026-04-18 11:20 | 46.74155 | 17.39374 | 7692 ft | 284 kts | 244° |
| 2026-04-18 11:20 | 46.73216 | 17.36844 | 7418 ft | 283 kts | 244° |
| 2026-04-18 11:20 | 46.72280 | 17.34325 | 7146 ft | 282 kts | 244° |
| 2026-04-18 11:20 | 46.71349 | 17.31821 | 6878 ft | 281 kts | 244° |
| 2026-04-18 11:21 | 46.70415 | 17.29310 | 6586 ft | 282 kts | 244° |
| 2026-04-18 11:21 | 46.69484 | 17.26818 | 6509 ft | 273 kts | 244° |
| 2026-04-18 11:21 | 46.68599 | 17.24447 | 6419 ft | 259 kts | 245° |
| 2026-04-18 11:21 | 46.67766 | 17.22220 | 6315 ft | 244 kts | 245° |
| 2026-04-18 11:22 | 46.66981 | 17.20118 | 6203 ft | 229 kts | 245° |
| 2026-04-18 11:22 | 46.66241 | 17.18139 | 6093 ft | 216 kts | 246° |
| 2026-04-18 11:22 | 46.65543 | 17.16276 | 5986 ft | 204 kts | 246° |
| 2026-04-18 11:22 | 46.64881 | 17.14507 | 5787 ft | 199 kts | 246° |
| 2026-04-18 11:23 | 46.64214 | 17.12728 | 5491 ft | 198 kts | 246° |
| 2026-04-18 11:23 | 46.63562 | 17.11013 | 5245 ft | 196 kts | 241° |
| 2026-04-18 11:23 | 46.62480 | 17.09825 | 5083 ft | 210 kts | 192° |
| 2026-04-18 11:23 | 46.60938 | 17.09619 | 5252 ft | 231 kts | 181° |
| 2026-04-18 11:24 | 46.59376 | 17.09583 | 5156 ft | 215 kts | 181° |
| 2026-04-18 11:24 | 46.57917 | 17.09548 | 4823 ft | 208 kts | 181° |
| 2026-04-18 11:24 | 46.56457 | 17.09504 | 4449 ft | 206 kts | 181° |
| 2026-04-18 11:24 | 46.55048 | 17.09581 | 4058 ft | 201 kts | 165° |
| 2026-04-18 11:25 | 46.53962 | 17.10673 | 3773 ft | 180 kts | 118° |
| 2026-04-18 11:25 | 46.53523 | 17.12331 | 3781 ft | 177 kts | 92° |
| 2026-04-18 11:25 | 46.53659 | 17.14064 | 3569 ft | 171 kts | 70° |
| 2026-04-18 11:25 | 46.53970 | 17.15781 | 3043 ft | 181 kts | 71° |
| 2026-04-18 11:26 | 46.54264 | 17.17440 | 2907 ft | 160 kts | 71° |
| 2026-04-18 11:26 | 46.54533 | 17.18952 | 2901 ft | 159 kts | 70° |
| 2026-04-18 11:26 | 46.55075 | 17.20355 | 2804 ft | 160 kts | 30° |
| 2026-04-18 11:26 | 46.56141 | 17.20572 | 2758 ft | 160 kts | 349° |
| 2026-04-18 11:27 | 46.57251 | 17.20226 | 2479 ft | 163 kts | 348° |
| 2026-04-18 11:27 | 46.58320 | 17.19837 | 2295 ft | 157 kts | 348° |
| 2026-04-18 11:27 | 46.59367 | 17.19443 | 2099 ft | 154 kts | 348° |
| 2026-04-18 11:27 | 46.60423 | 17.19040 | 1888 ft | 157 kts | 347° |
| 2026-04-18 11:28 | 46.61471 | 17.18639 | 1684 ft | 154 kts | 346° |
| 2026-04-18 11:28 | 46.62492 | 17.18247 | 1470 ft | 150 kts | 347° |
| 2026-04-18 11:28 | 46.63511 | 17.17857 | 1277 ft | 151 kts | 347° |
| 2026-04-18 11:28 | 46.64529 | 17.17469 | 1073 ft | 150 kts | 347° |
| 2026-04-18 11:29 | 46.65531 | 17.17088 | 851 ft | 150 kts | 349° |
| 2026-04-18 11:29 | 46.66531 | 17.16708 | 685 ft | 146 kts | 350° |
| 2026-04-18 11:29 | 46.67516 | 17.16332 | 466 ft | 146 kts | 348° |
| 2026-04-18 11:29 | 46.68449 | 17.15981 | 399 ft | 118 kts | 346° |
| 2026-04-18 11:30 | 46.69027 | 17.15759 | 393 ft | 54 kts | 346° |
| 2026-04-18 11:30 | 46.69264 | 17.15670 | 399 ft | 31 kts | 345° |
| 2026-04-18 11:30 | 46.69462 | 17.15596 | 402 ft | 29 kts | 346° |
| 2026-04-18 11:30 | 46.69647 | 17.15524 | 403 ft | 21 kts | 345° |
| 2026-04-18 11:31 | 46.69732 | 17.15596 | 400 ft | 13 kts | 70° |
| 2026-04-18 11:31 | 46.69740 | 17.15633 | 404 ft | 0 kts | 75° |
| 2026-04-18 11:31 | 46.69740 | 17.15634 | 404 ft | 1 kts | 75° |
| 2026-04-18 11:31 | 46.69750 | 17.15687 | 404 ft | 9 kts | 74° |
| 2026-04-18 11:32 | 46.69728 | 17.15763 | 404 ft | 9 kts | 147° |
| 2026-04-18 11:32 | 46.69666 | 17.15809 | 405 ft | 12 kts | 155° |
| 2026-04-18 11:32 | 46.69607 | 17.15885 | 405 ft | 10 kts | 112° |
| 2026-04-18 11:32 | 46.69602 | 17.15917 | 405 ft | 1 kts | 102° |
| 2026-04-18 11:33 | 46.69601 | 17.15918 | 405 ft | 0 kts | 102° |